createdAt,value
2023-05-03T00:01:44.307Z,100.00
2023-05-03T00:04:11.749Z,100.00
2023-05-03T00:06:53.793Z,100.00
2023-05-03T00:09:43.048Z,100.00
2023-05-03T00:12:29.694Z,100.00
2023-05-03T00:15:18.535Z,100.00
2023-05-03T00:17:46.259Z,100.00
2023-05-03T00:20:13.365Z,100.00
2023-05-03T00:22:40.405Z,100.00
2023-05-03T00:25:09.922Z,100.00
2023-05-03T00:27:37.216Z,100.00
2023-05-03T00:30:05.184Z,100.00
2023-05-03T00:32:32.455Z,100.00
2023-05-03T00:34:59.432Z,100.00
2023-05-03T00:37:27.229Z,100.00
2023-05-03T00:39:54.221Z,100.00
2023-05-03T00:42:21.159Z,100.00
2023-05-03T00:44:48.059Z,100.00
2023-05-03T00:47:16.615Z,100.00
2023-05-03T00:49:44.869Z,100.00
2023-05-03T00:52:12.139Z,100.00
2023-05-03T00:54:39.845Z,100.00
2023-05-03T00:57:07.065Z,100.00
2023-05-03T00:59:34.672Z,100.00
2023-05-03T01:02:02.141Z,100.00
2023-05-03T01:04:29.960Z,100.00
2023-05-03T01:07:18.017Z,100.00
2023-05-03T01:10:21.475Z,100.00
2023-05-03T01:13:29.631Z,100.00
2023-05-03T01:16:49.001Z,100.00
2023-05-03T01:19:52.223Z,100.00
2023-05-03T01:22:41.844Z,100.00
2023-05-03T01:25:11.218Z,100.00
2023-05-03T01:27:38.964Z,100.00
2023-05-03T01:30:07.762Z,100.00
2023-05-03T01:33:12.015Z,100.00
2023-05-03T01:36:09.505Z,100.00
2023-05-03T01:38:38.180Z,100.00
2023-05-03T01:41:10.778Z,100.00
2023-05-03T01:43:39.188Z,100.00
2023-05-03T01:46:06.133Z,100.00
2023-05-03T01:48:33.222Z,100.00
2023-05-03T01:51:00.528Z,100.00
2023-05-03T01:53:27.518Z,100.00
2023-05-03T01:55:54.478Z,100.00
2023-05-03T01:58:21.370Z,100.00
2023-05-03T02:00:49.015Z,100.00
2023-05-03T02:03:16.027Z,100.00
2023-05-03T02:05:42.941Z,100.00
2023-05-03T02:08:09.866Z,100.00
2023-05-03T02:10:36.845Z,100.00
2023-05-03T02:13:03.979Z,100.00
2023-05-03T02:15:32.239Z,100.00
2023-05-03T02:18:02.602Z,100.00
2023-05-03T02:20:32.729Z,100.00
2023-05-03T02:22:59.789Z,100.00
2023-05-03T02:25:27.707Z,100.00
2023-05-03T02:27:54.760Z,100.00
2023-05-03T02:30:22.061Z,100.00
2023-05-03T02:32:49.009Z,100.00
2023-05-03T02:35:16.010Z,100.00
2023-05-03T02:37:42.945Z,100.00
2023-05-03T02:40:10.167Z,100.00
2023-05-03T02:42:37.199Z,100.00
2023-05-03T02:45:04.792Z,100.00
2023-05-03T02:47:31.871Z,100.00
2023-05-03T02:49:58.805Z,100.00
2023-05-03T02:52:25.803Z,100.00
2023-05-03T02:54:52.704Z,100.00
2023-05-03T02:57:19.625Z,100.00
2023-05-03T02:59:46.501Z,100.00
2023-05-03T03:02:13.516Z,100.00
2023-05-03T03:04:40.394Z,100.00
2023-05-03T03:07:07.336Z,100.00
2023-05-03T03:09:34.276Z,100.00
2023-05-03T03:12:03.706Z,100.00
2023-05-03T03:14:30.903Z,100.00
2023-05-03T03:16:58.579Z,100.00
2023-05-03T03:19:25.609Z,100.00
2023-05-03T03:21:52.659Z,100.00
2023-05-03T03:24:19.549Z,100.00
2023-05-03T03:26:46.478Z,100.00
2023-05-03T03:29:13.385Z,100.00
2023-05-03T03:31:40.481Z,100.00
2023-05-03T03:34:07.460Z,100.00
2023-05-03T03:36:34.376Z,100.00
2023-05-03T03:39:01.314Z,100.00
2023-05-03T03:41:28.258Z,100.00
2023-05-03T03:43:55.171Z,100.00
2023-05-03T03:46:22.223Z,100.00
2023-05-03T03:48:49.214Z,100.00
2023-05-03T03:51:16.357Z,100.00
2023-05-03T03:53:43.496Z,100.00
2023-05-03T03:56:10.481Z,100.00
2023-05-03T03:58:37.460Z,100.00
2023-05-03T04:01:04.758Z,100.00
2023-05-03T04:03:31.747Z,100.00
2023-05-03T04:05:58.680Z,100.00
2023-05-03T04:08:25.659Z,100.00
2023-05-03T04:10:52.598Z,100.00
2023-05-03T04:13:19.613Z,100.00
2023-05-03T04:15:46.533Z,100.00
2023-05-03T04:18:13.580Z,100.00
2023-05-03T04:20:40.665Z,100.00
2023-05-03T04:23:07.740Z,100.00
2023-05-03T04:25:37.290Z,100.00
2023-05-03T04:28:04.637Z,100.00
2023-05-03T04:30:32.137Z,100.00
2023-05-03T04:33:00.250Z,100.00
2023-05-03T04:35:27.207Z,100.00
2023-05-03T04:37:54.130Z,100.00
2023-05-03T04:40:21.111Z,100.00
2023-05-03T04:42:48.552Z,100.00
2023-05-03T04:45:15.506Z,100.00
2023-05-03T04:47:42.489Z,100.00
2023-05-03T04:50:11.450Z,100.00
2023-05-03T04:52:38.502Z,100.00
2023-05-03T04:55:05.827Z,100.00
2023-05-03T04:57:34.133Z,100.00
2023-05-03T05:00:01.787Z,100.00
2023-05-03T05:02:29.318Z,100.00
2023-05-03T05:04:56.300Z,100.00
2023-05-03T05:07:23.296Z,100.00
2023-05-03T05:09:50.164Z,100.00
2023-05-03T05:12:17.190Z,100.00
2023-05-03T05:14:44.439Z,100.00
2023-05-03T05:17:11.568Z,100.00
2023-05-03T05:19:38.555Z,100.00
2023-05-03T05:22:05.803Z,100.00
2023-05-03T05:24:32.760Z,100.00
2023-05-03T05:26:59.677Z,100.00
2023-05-03T05:29:26.598Z,100.00
2023-05-03T05:31:53.611Z,100.00
2023-05-03T05:34:20.653Z,100.00
2023-05-03T05:36:47.650Z,100.00
2023-05-03T05:39:14.543Z,100.00
2023-05-03T05:41:41.452Z,100.00
2023-05-03T05:44:08.339Z,100.00
2023-05-03T05:46:35.282Z,100.00
2023-05-03T05:49:02.233Z,100.00
2023-05-03T05:51:30.768Z,100.00
2023-05-03T05:53:58.088Z,100.00
2023-05-03T05:56:25.197Z,100.00
2023-05-03T05:58:52.152Z,100.00
2023-05-03T06:01:19.066Z,100.00
2023-05-03T06:03:45.983Z,100.00
2023-05-03T06:06:12.954Z,100.00
2023-05-03T06:08:39.886Z,100.00
2023-05-03T06:11:06.913Z,100.00
2023-05-03T06:13:38.788Z,100.00
2023-05-03T06:16:06.300Z,100.00
2023-05-03T06:18:33.261Z,100.00
2023-05-03T06:21:00.234Z,100.00
2023-05-03T06:23:28.343Z,100.00
2023-05-03T06:25:55.350Z,100.00
2023-05-03T06:28:22.233Z,100.00
2023-05-03T06:30:50.836Z,100.00
2023-05-03T06:33:17.934Z,100.00
2023-05-03T06:35:47.327Z,100.00
2023-05-03T06:38:14.463Z,100.00
2023-05-03T06:40:44.068Z,100.00
2023-05-03T06:43:10.929Z,100.00
2023-05-03T06:45:39.361Z,100.00
2023-05-03T06:48:07.053Z,100.00
2023-05-03T06:50:34.053Z,100.00
2023-05-03T06:53:01.006Z,100.00
2023-05-03T06:55:28.224Z,100.00
2023-05-03T06:57:55.222Z,100.00
2023-05-03T07:00:23.307Z,100.00
2023-05-03T07:02:50.383Z,100.00
2023-05-03T07:05:17.423Z,100.00
2023-05-03T07:07:44.726Z,100.00
2023-05-03T07:10:11.839Z,97.60
2023-05-03T07:12:38.704Z,98.15
2023-05-03T07:15:05.993Z,97.60
2023-05-03T07:17:32.974Z,96.16
2023-05-03T07:19:59.920Z,96.54
2023-05-03T07:22:27.684Z,95.82
2023-05-03T07:24:59.956Z,94.57
2023-05-03T07:27:27.364Z,95.37
2023-05-03T07:29:54.969Z,91.30
2023-05-03T07:32:22.684Z,90.74
2023-05-03T07:34:49.759Z,89.80
2023-05-03T07:37:17.000Z,90.90
2023-05-03T07:39:43.949Z,91.75
2023-05-03T07:42:10.807Z,87.33
2023-05-03T07:44:37.836Z,87.77
2023-05-03T07:47:04.766Z,88.23
2023-05-03T07:49:35.762Z,87.86
2023-05-03T07:52:03.243Z,86.95
2023-05-03T07:54:30.212Z,83.92
2023-05-03T07:56:57.182Z,85.87
2023-05-03T07:59:24.050Z,85.18
2023-05-03T08:01:51.353Z,84.72
2023-05-03T08:04:18.496Z,84.49
2023-05-03T08:06:45.851Z,85.29
2023-05-03T08:09:12.818Z,84.47
2023-05-03T08:11:41.660Z,85.66
2023-05-03T08:14:10.215Z,85.00
2023-05-03T08:16:37.228Z,84.19
2023-05-03T08:19:05.104Z,81.51
2023-05-03T08:21:33.720Z,80.96
2023-05-03T08:24:01.130Z,82.34
2023-05-03T08:26:30.054Z,83.13
2023-05-03T08:28:57.084Z,83.84
2023-05-03T08:31:24.001Z,81.23
2023-05-03T08:33:51.104Z,80.42
2023-05-03T08:36:18.023Z,79.06
2023-05-03T08:38:45.160Z,75.23
2023-05-03T08:41:39.789Z,75.85
2023-05-03T08:44:08.660Z,77.42
2023-05-03T08:46:37.507Z,76.54
2023-05-03T08:49:07.133Z,78.10
2023-05-03T08:51:35.100Z,79.68
2023-05-03T08:54:02.054Z,79.45
2023-05-03T08:56:32.678Z,79.44
2023-05-03T08:59:07.590Z,80.41
2023-05-03T09:01:37.483Z,79.06
2023-05-03T09:04:05.135Z,80.71
2023-05-03T09:06:35.456Z,80.58
2023-05-03T09:09:07.760Z,80.38
2023-05-03T09:11:36.297Z,79.79
2023-05-03T09:14:12.228Z,81.18
2023-05-03T09:16:41.120Z,79.91
2023-05-03T09:19:12.950Z,80.09
2023-05-03T09:21:43.903Z,81.70
2023-05-03T09:24:17.993Z,80.91
2023-05-03T09:26:46.810Z,81.08
2023-05-03T09:29:34.692Z,82.44
2023-05-03T09:32:06.274Z,82.06
2023-05-03T09:34:34.178Z,83.73
2023-05-03T09:37:01.633Z,81.23
2023-05-03T09:39:28.740Z,81.71
2023-05-03T09:41:57.170Z,81.19
2023-05-03T09:44:42.694Z,81.38
2023-05-03T09:47:10.578Z,81.33
2023-05-03T09:49:38.409Z,79.48
2023-05-03T09:52:07.259Z,81.50
2023-05-03T09:54:38.091Z,80.08
2023-05-03T09:57:06.269Z,80.85
2023-05-03T09:59:35.000Z,81.31
2023-05-03T10:02:05.732Z,80.37
2023-05-03T10:04:43.957Z,80.91
2023-05-03T10:07:18.269Z,81.90
2023-05-03T10:09:47.604Z,83.78
2023-05-03T10:12:17.862Z,83.04
2023-05-03T10:14:50.219Z,81.33
2023-05-03T10:20:23.254Z,81.91
2023-05-03T10:23:05.449Z,81.81
2023-05-03T10:25:33.534Z,81.78
2023-05-03T10:28:04.494Z,78.28
2023-05-03T10:30:36.217Z,80.42
2023-05-03T10:33:14.998Z,78.19
2023-05-03T10:35:44.116Z,79.25
2023-05-03T10:38:20.207Z,78.08
2023-05-03T10:40:47.241Z,78.22
2023-05-03T10:43:42.327Z,78.78
2023-05-03T10:46:33.333Z,78.65
2023-05-03T10:49:18.607Z,78.79
2023-05-03T10:51:45.767Z,79.77
2023-05-03T10:54:12.807Z,78.66
2023-05-03T10:56:50.472Z,77.32
2023-05-03T10:59:17.562Z,75.58
2023-05-03T11:01:51.486Z,75.39
2023-05-03T11:04:37.691Z,76.00
2023-05-03T11:07:04.915Z,75.72
2023-05-03T11:09:33.772Z,78.97
2023-05-03T11:12:04.753Z,77.88
2023-05-03T11:14:31.850Z,77.65
2023-05-03T11:16:59.201Z,76.72
2023-05-03T11:19:27.033Z,77.44
2023-05-03T11:21:54.296Z,75.16
2023-05-03T11:24:21.408Z,78.16
2023-05-03T11:26:49.110Z,76.78
2023-05-03T11:29:17.408Z,75.28
2023-05-03T11:31:44.917Z,76.66
2023-05-03T11:34:13.605Z,77.44
2023-05-03T11:36:42.372Z,78.40
2023-05-03T11:39:09.617Z,79.73
2023-05-03T11:41:36.706Z,76.00
2023-05-03T11:44:15.995Z,77.32
2023-05-03T11:46:44.102Z,77.18
2023-05-03T11:49:11.573Z,79.23
2023-05-03T11:51:38.647Z,78.84
2023-05-03T11:54:20.905Z,79.87
2023-05-03T11:56:55.372Z,77.74
2023-05-03T11:59:34.719Z,78.14
2023-05-03T12:02:04.844Z,78.64
2023-05-03T12:04:32.226Z,76.91
2023-05-03T12:07:00.734Z,75.13
2023-05-03T12:09:29.387Z,75.66
2023-05-03T12:11:58.297Z,75.39
2023-05-03T12:14:26.330Z,74.85
2023-05-03T12:16:56.564Z,76.50
2023-05-03T12:19:28.250Z,75.58
2023-05-03T12:22:17.775Z,76.05
2023-05-03T12:24:45.576Z,77.22
2023-05-03T12:27:14.247Z,75.16
2023-05-03T12:29:42.043Z,77.39
2023-05-03T12:34:38.408Z,76.33
2023-05-03T12:37:11.104Z,77.48
2023-05-03T12:39:40.138Z,74.55
2023-05-03T12:42:09.437Z,74.22
2023-05-03T12:44:42.635Z,72.73
2023-05-03T12:47:10.639Z,74.32
2023-05-03T12:49:39.209Z,73.51
2023-05-03T12:52:35.282Z,75.83
2023-05-03T12:54:55.967Z,74.44
2023-05-03T12:57:24.281Z,75.31
2023-05-03T12:59:54.391Z,73.23
2023-05-03T13:05:11.254Z,71.73
2023-05-03T13:07:42.706Z,73.30
2023-05-03T13:12:40.969Z,73.60
2023-05-03T13:15:08.893Z,72.84
2023-05-03T13:17:35.969Z,75.74
2023-05-03T13:20:07.378Z,76.10
2023-05-03T13:22:34.364Z,74.71
2023-05-03T13:25:01.390Z,75.21
2023-05-03T13:27:28.469Z,73.40
2023-05-03T13:29:55.389Z,74.86
2023-05-03T13:32:22.626Z,75.50
2023-05-03T13:34:49.503Z,74.09
2023-05-03T13:37:19.016Z,74.71
2023-05-03T13:39:46.849Z,74.83
2023-05-03T13:42:13.779Z,75.90
2023-05-03T13:44:40.906Z,76.31
2023-05-03T13:47:07.808Z,74.62
2023-05-03T13:49:35.426Z,75.99
2023-05-03T13:52:02.405Z,74.75
2023-05-03T13:54:30.881Z,75.80
2023-05-03T13:56:59.055Z,76.00
2023-05-03T13:59:26.156Z,73.56
2023-05-03T14:01:53.143Z,72.63
2023-05-03T14:04:20.216Z,72.60
2023-05-03T14:06:47.256Z,73.69
2023-05-03T14:09:22.521Z,71.86
2023-05-03T14:11:49.444Z,73.19
2023-05-03T14:14:16.495Z,74.05
2023-05-03T14:16:44.244Z,70.64
2023-05-03T14:19:11.824Z,70.84
2023-05-03T14:21:39.107Z,72.27
2023-05-03T14:24:06.908Z,70.73
2023-05-03T14:26:34.467Z,72.44
2023-05-03T14:29:01.708Z,71.14
2023-05-03T14:31:28.955Z,70.10
2023-05-03T14:33:56.037Z,69.68
2023-05-03T14:36:23.371Z,69.60
2023-05-03T14:38:50.337Z,70.21
2023-05-03T14:41:17.277Z,72.27
2023-05-03T14:43:44.163Z,69.38
2023-05-03T14:46:11.293Z,69.34
2023-05-03T14:48:38.549Z,68.50
2023-05-03T14:51:05.729Z,67.76
2023-05-03T14:53:32.712Z,68.31
2023-05-03T14:56:00.143Z,66.76
2023-05-03T14:58:27.778Z,68.34
2023-05-03T15:00:54.862Z,69.38
2023-05-03T15:03:21.873Z,67.27
2023-05-03T15:05:50.370Z,68.23
2023-05-03T15:08:19.523Z,68.12
2023-05-03T15:10:47.999Z,65.61
2023-05-03T15:13:16.664Z,65.11
2023-05-03T15:15:44.509Z,64.77
2023-05-03T15:18:13.743Z,63.96
2023-05-03T15:20:40.682Z,66.00
2023-05-03T15:23:07.570Z,64.91
2023-05-03T15:25:34.546Z,63.08
2023-05-03T15:28:04.193Z,62.48
2023-05-03T15:30:32.421Z,62.13
2023-05-03T15:32:59.470Z,63.59
2023-05-03T15:35:26.515Z,62.74
2023-05-03T15:37:53.490Z,63.81
2023-05-03T15:40:23.696Z,63.51
2023-05-03T15:42:52.130Z,63.84
2023-05-03T15:45:19.477Z,63.76
2023-05-03T15:47:46.594Z,64.39
2023-05-03T15:50:14.109Z,64.70
2023-05-03T15:52:42.497Z,63.12
2023-05-03T15:55:10.112Z,62.78
2023-05-03T15:57:37.512Z,64.88
2023-05-03T16:00:15.215Z,64.82
2023-05-03T16:02:42.861Z,65.82
2023-05-03T16:05:11.298Z,66.62
2023-05-03T16:07:38.290Z,64.80
2023-05-03T16:10:06.720Z,64.39
2023-05-03T16:12:33.907Z,67.41
2023-05-03T16:15:01.228Z,63.50
2023-05-03T16:17:28.363Z,63.15
2023-05-03T16:19:55.391Z,63.40
2023-05-03T16:22:22.333Z,63.74
2023-05-03T16:24:49.438Z,63.28
2023-05-03T16:27:16.344Z,63.62
2023-05-03T16:29:43.211Z,63.54
2023-05-03T16:32:11.228Z,67.64
2023-05-03T16:34:38.558Z,63.52
2023-05-03T16:37:05.715Z,65.70
2023-05-03T16:39:32.909Z,62.52
2023-05-03T16:41:59.813Z,64.48
2023-05-03T16:44:27.059Z,67.68
2023-05-03T16:46:53.981Z,66.48
2023-05-03T16:49:21.076Z,67.66
2023-05-03T16:51:48.192Z,66.47
2023-05-03T16:54:17.029Z,66.91
2023-05-03T16:56:44.660Z,68.49
2023-05-03T16:59:12.013Z,70.66
2023-05-03T17:01:39.028Z,71.95
2023-05-03T17:04:06.792Z,70.98
2023-05-03T17:06:33.810Z,70.36
2023-05-03T17:09:00.904Z,70.13
2023-05-03T17:11:27.831Z,71.40
2023-05-03T17:13:54.753Z,74.21
2023-05-03T17:16:22.929Z,74.34
2023-05-03T17:18:50.205Z,74.58
2023-05-03T17:21:18.828Z,73.30
2023-05-03T17:23:46.369Z,75.66
2023-05-03T17:26:14.592Z,76.98
2023-05-03T17:28:41.835Z,76.10
2023-05-03T17:31:08.851Z,73.73
2023-05-03T17:33:36.522Z,72.84
2023-05-03T17:36:06.814Z,72.68
2023-05-03T17:38:34.985Z,73.90
2023-05-03T17:41:08.725Z,73.22
2023-05-03T17:43:36.650Z,72.08
2023-05-03T17:46:11.360Z,73.09
2023-05-03T17:48:40.133Z,73.55
2023-05-03T17:51:08.267Z,72.47
2023-05-03T17:53:35.465Z,76.16
2023-05-03T17:56:02.379Z,74.53
2023-05-03T17:58:29.257Z,74.62
2023-05-03T18:00:57.349Z,75.77
2023-05-03T18:04:07.751Z,76.43
2023-05-03T18:06:34.696Z,77.84
2023-05-03T18:09:01.652Z,77.67
2023-05-03T18:11:56.756Z,79.43
2023-05-03T18:14:23.628Z,78.40
2023-05-03T18:16:52.350Z,76.75
2023-05-03T18:19:20.238Z,76.85
2023-05-03T18:21:47.594Z,78.35
2023-05-03T18:24:15.885Z,79.45
2023-05-03T18:26:42.800Z,80.77
2023-05-03T18:29:10.248Z,81.36
2023-05-03T18:31:54.966Z,82.30
2023-05-03T18:34:21.930Z,83.62
2023-05-03T18:36:48.823Z,83.96
2023-05-03T18:39:16.246Z,87.19
2023-05-03T18:41:43.151Z,87.24
2023-05-03T18:44:10.099Z,88.32
2023-05-03T18:46:39.988Z,87.92
2023-05-03T18:49:07.048Z,88.52
2023-05-03T18:51:34.013Z,88.38
2023-05-03T18:54:01.648Z,89.38
2023-05-03T18:56:30.507Z,89.56
2023-05-03T18:58:57.472Z,90.35
2023-05-03T19:01:26.805Z,90.98
2023-05-03T19:03:54.204Z,91.97
2023-05-03T19:06:21.385Z,92.86
2023-05-03T19:08:49.762Z,93.40
2023-05-03T19:11:17.311Z,92.91
2023-05-03T19:13:47.595Z,94.14
2023-05-03T19:16:17.655Z,94.26
2023-05-03T19:18:45.591Z,94.20
2023-05-03T19:21:12.723Z,94.13
2023-05-03T19:23:39.608Z,93.97
2023-05-03T19:26:06.666Z,94.39
2023-05-03T19:28:33.613Z,95.04
2023-05-03T19:31:04.096Z,94.89
2023-05-03T19:33:31.420Z,97.02
2023-05-03T19:35:58.449Z,99.45
2023-05-03T19:38:25.378Z,100.00
2023-05-03T19:40:57.607Z,100.00
2023-05-03T19:44:04.915Z,100.00
2023-05-03T19:46:33.946Z,100.00
2023-05-03T19:49:01.634Z,100.00
2023-05-03T19:51:28.800Z,100.00
2023-05-03T19:53:56.723Z,100.00
2023-05-03T19:56:25.358Z,100.00
2023-05-03T19:58:52.390Z,100.00
2023-05-03T20:01:19.310Z,100.00
2023-05-03T20:03:47.005Z,100.00
2023-05-03T20:06:14.413Z,100.00
2023-05-03T20:08:41.333Z,100.00
2023-05-03T20:11:08.251Z,100.00
2023-05-03T20:13:35.177Z,100.00
2023-05-03T20:16:05.110Z,100.00
2023-05-03T20:18:32.148Z,100.00
2023-05-03T20:20:59.157Z,100.00
2023-05-03T20:23:27.044Z,100.00
2023-05-03T20:25:53.989Z,100.00
2023-05-03T20:28:20.918Z,100.00
2023-05-03T20:30:47.918Z,100.00
2023-05-03T20:33:15.080Z,100.00
2023-05-03T20:35:42.134Z,100.00
2023-05-03T20:38:09.067Z,100.00
2023-05-03T20:40:35.998Z,100.00
2023-05-03T20:43:03.102Z,100.00
2023-05-03T20:45:30.286Z,100.00
2023-05-03T20:47:57.213Z,100.00
2023-05-03T20:50:24.170Z,100.00
2023-05-03T20:52:51.158Z,100.00
2023-05-03T20:55:18.235Z,100.00
2023-05-03T20:57:45.353Z,100.00
2023-05-03T21:00:12.783Z,100.00
2023-05-03T21:02:39.951Z,100.00
2023-05-03T21:05:21.017Z,100.00
2023-05-03T21:07:48.523Z,100.00
2023-05-03T21:10:15.581Z,100.00
2023-05-03T21:12:42.551Z,100.00
2023-05-03T21:15:09.999Z,100.00
2023-05-03T21:17:37.049Z,100.00
2023-05-03T21:20:04.585Z,100.00
2023-05-03T21:22:31.707Z,100.00
2023-05-03T21:24:59.306Z,100.00
2023-05-03T21:27:26.201Z,100.00
2023-05-03T21:29:53.326Z,100.00
2023-05-03T21:32:20.242Z,100.00
2023-05-03T21:34:47.248Z,100.00
2023-05-03T21:37:14.122Z,100.00
2023-05-03T21:39:41.071Z,100.00
2023-05-03T21:42:08.026Z,100.00
2023-05-03T21:44:35.336Z,100.00
2023-05-03T21:47:03.096Z,100.00
2023-05-03T21:49:30.041Z,100.00
2023-05-03T21:51:56.954Z,100.00
2023-05-03T21:54:23.992Z,100.00
2023-05-03T21:56:50.925Z,100.00
2023-05-03T21:59:17.844Z,100.00
2023-05-03T22:01:44.794Z,100.00
2023-05-03T22:04:11.753Z,100.00
2023-05-03T22:06:38.713Z,100.00
2023-05-03T22:09:07.019Z,100.00
2023-05-03T22:11:33.940Z,100.00
2023-05-03T22:14:07.972Z,100.00
2023-05-03T22:16:37.947Z,100.00
2023-05-03T22:19:05.587Z,100.00
2023-05-03T22:21:32.803Z,100.00
2023-05-03T22:23:59.721Z,100.00
2023-05-03T22:26:28.212Z,100.00
2023-05-03T22:28:55.095Z,100.00
2023-05-03T22:31:22.124Z,100.00
2023-05-03T22:33:49.247Z,100.00
2023-05-03T22:36:16.339Z,100.00
2023-05-03T22:38:43.556Z,100.00
2023-05-03T22:41:10.734Z,100.00
2023-05-03T22:43:37.927Z,100.00
2023-05-03T22:46:04.995Z,100.00
2023-05-03T22:48:32.842Z,100.00
2023-05-03T22:51:00.151Z,100.00
2023-05-03T22:53:27.255Z,100.00
2023-05-03T22:56:02.241Z,100.00
2023-05-03T22:58:29.469Z,100.00
2023-05-03T23:00:56.935Z,100.00
2023-05-03T23:03:24.097Z,100.00
2023-05-03T23:05:54.818Z,100.00
2023-05-03T23:08:21.953Z,100.00
2023-05-03T23:10:48.932Z,100.00
2023-05-03T23:13:17.029Z,100.00
2023-05-03T23:15:44.426Z,100.00
2023-05-03T23:18:11.377Z,100.00
2023-05-03T23:20:38.693Z,100.00
2023-05-03T23:23:05.560Z,100.00
2023-05-03T23:25:32.594Z,100.00
2023-05-03T23:27:59.583Z,100.00
2023-05-03T23:30:27.316Z,100.00
2023-05-03T23:32:54.725Z,100.00
2023-05-03T23:35:22.075Z,100.00
2023-05-03T23:37:49.028Z,100.00
2023-05-03T23:40:15.969Z,100.00
2023-05-03T23:42:43.634Z,100.00
2023-05-03T23:45:11.043Z,100.00
2023-05-03T23:47:38.149Z,100.00
2023-05-03T23:50:05.925Z,100.00
2023-05-03T23:52:33.144Z,100.00
2023-05-03T23:55:00.130Z,100.00
2023-05-03T23:57:27.075Z,100.00
2023-05-03T23:59:54.182Z,100.00
